Terminal Aerodrome Forecast
Issued by NWS

Home | Current Version | Previous Version | Text Only | Print | Product List | Glossary On
Versions: 1 2 3 4 5 6 7 8 9 10 11 12 13 14 15
287
FTUS46 KSEW 301120
TAFBFI
TAF
KBFI 301120Z 3012/3112 18010KT P6SM OVC011
     FM302100 20006KT P6SM VCSH OVC025
     FM310100 20006KT P6SM VCSH OVC035
     FM310300 18005KT P6SM OVC020=

USA.gov is the U.S. government's official web portal to all federal, state and local government web resources and services.